Alpena, MI (49707)

10:52 PM EDT on September 03, 2015 (GMT -0400)
APRSWXNET | | Change Station
CLOSE
Current Station
Personal Weather Station
Location: Alpena, MI
Elevation: 593 ft
Nearby Weather Stations

Elev 593 ft 45.05 °N, 83.45 °W | Updated 34 minutes ago

Overcast
Overcast
67 °F
Feels Like 67 °F
N
0
Wind Variable Wind from NNW
Gusts 0.0 mph

Today
High -- | Low -- °F
--% Chance of Precip.
Yesterday
High -- | Low -- °F
Precip. -- in
6:57 AM 8:07 PM
Waning Gibbous, 64% visible
Pressure 29.96 in
Visibility 6.0 miles
Clouds Few 7000 ft
Overcast 11000 ft
Dew Point 66 °F
Humidity 97%
Rainfall in
Snow Depth Not available.
UV 0 out of 12
Pollen 10.00 out of 12
Air Quality Not available.
Flu Activity Not available.
METAR KAPN 040154Z AUTO 01004KT 6SM BR FEW070 OVC110 20/19 A2997 RMK AO2 RAE0057B17E34 SLP145 P0000 T02000189
Pressure 29.96 in
Visibility 6.0 miles
Clouds Few 7000 ft
Overcast 11000 ft
Dew Point 66 °F
Humidity 97%
Rainfall in
Snow Depth Not available.
UV 0 out of 12
Pollen 10.00 out of 12
Air Quality Not available.
Flu Activity Not available.
METAR KAPN 040154Z AUTO 01004KT 6SM BR FEW070 OVC110 20/19 A2997 RMK AO2 RAE0057B17E34 SLP145 P0000 T02000189
Nowcast | as of 10:00 PM EDT on September 3, 2015

At 11 PM...showers likely. Temperature 66. Light winds. At 1 am...showers likely. Temperature 66. Northeast winds 5 mph. At 3 am...mostly cloudy. Areas of fog. Scattered showers. Temperature 65. East winds 6 mph. At 5 am...areas of fog. Numerous showers. Temperature 65. East winds 5 mph.

×

10-Day Weather Forecast

×

Almanac

Astronomy

Sep. 03, 2015 Rise Set
Actual Time
Civil Twilight
Nautical Twilight
Astronomical Twilight
Moon
Length of Visible Light
Length of Day
Tomorrow will be .
, % of the Moon is Illuminated

Today's Extremes

State Highs State Lows

Community

WunderPhotos

Upload Photos

1,852,106 photos uploaded!

WunderBlogs® & News

Nearby

Air Quality

  Air Quality AQ Index Pollutant
Not available.

Snow Depth

Station Depth Elevation

Earthquake Activity

City Distance Mag. Time & Date
Minimum magnitude displayed is 2.5.

Coastal Water Temperatures

Place Temperature

Stations

Nearby Weather Stations

Station Location Temp. Windchill Dew Point Humidity Wind Precip. Elev Updated Type